Flight Briefing for CPX303

Departure Arrival
Guam International Airport (PGUM)
Click to view FAA NOTAMS
Daniel K Inouye International Airport (PHNL)
Click to view FAA NOTAMS
Departure Time Arrival Time
N/A N/A
Aircraft Distance
B767-300BDSF 3303nm
Departure METAR Arrival METAR
PGUM 250354Z 13006KT 10SM CLR 31/23 A2986 RMK AO2 SLP102 T03110228 PHNL 250353Z 08013KT 10SM FEW025 FEW037 SCT080 29/19 A3004 RMK AO2 SLP172 T02940189 $
Suggested Route
DEWSS A450 JIMOS A450 NGUEN A450 BRIUN NONNI BOOKE BOOKE8


View recent IFR Routes data
Notes



Charts and Procedures

Charts for PGUM
No chart available
Charts for PHNL
No chart available

Windy.com Weather Map